Time;durP1;ratioP1;P1;durP2;ratioP2;P2;SDS_P1;SDS_P2;PMS_P1;PMS_P2;Temp;Humidity;BMP_temperature;BMP_pressure;BME280_temperature;BME280_humidity;BME280_pressure;Samples;Min_cycle;Max_cycle;Signal;HPM_P1;HPM_P2
2021/05/24 00:02:19;;;;;;;;;;;;;;;12.15;79.34;96013.36;1789249;80;20227;-62
2021/05/24 00:04:45;;;;;;;;;;;;;;;12.13;79.35;96012.05;1789214;80;20135;-63
2021/05/24 00:07:12;;;;;;;;;;;;;;;12.16;79.71;96019.92;1789563;80;20154;-62
2021/05/24 00:09:38;;;;;;;;;;;;;;;12.17;80.28;96016.82;1789368;80;20167;-62
2021/05/24 00:12:07;;;;;;;;;;;;;;;12.19;79.88;96023.83;1789164;80;20136;-62
2021/05/24 00:14:35;;;;;;;;;;;;;;;12.24;79.88;96033.01;1789293;80;20151;-62
2021/05/24 00:17:02;;;;;;;;;;;;;;;12.24;79.40;96036.52;1789343;80;20155;-62
2021/05/24 00:19:28;;;;;;;;;;;;;;;12.21;79.40;96036.58;1789279;80;20156;-62
2021/05/24 00:21:55;;;;;;;;;;;;;;;12.25;79.14;96041.39;1789390;80;20139;-62
2021/05/24 00:24:22;;;;;;;;;;;;;;;12.27;78.68;96044.86;1789214;80;20476;-62
2021/05/24 00:26:48;;;;;;;;;;;;;;;12.29;78.84;96043.06;1788927;80;20152;-62
2021/05/24 00:29:18;;;;;;;;;;;;;;;12.25;78.83;96039.61;1789203;80;20139;-62
2021/05/24 00:31:42;;;;;;;;;;;;;;;12.24;79.29;96046.23;1788939;80;20194;-62
2021/05/24 00:34:08;;;;;;;;;;;;;;;12.17;80.00;96052.11;1789255;80;20475;-62
2021/05/24 00:36:35;;;;;;;;;;;;;;;12.13;79.85;96053.91;1789319;80;20218;-62
2021/05/24 00:39:02;;;;;;;;;;;;;;;12.07;80.19;96055.78;1789321;80;20159;-62
2021/05/24 00:41:28;;;;;;;;;;;;;;;11.98;79.87;96062.57;1789122;80;20472;-62
2021/05/24 00:43:54;;;;;;;;;;;;;;;11.92;79.89;96055.62;1758715;80;20159;-62
2021/05/24 00:46:21;;;;;;;;;;;;;;;11.90;79.98;96067.53;1758910;80;20163;-62
2021/05/24 00:48:47;;;;;;;;;;;;;;;11.85;80.21;96072.44;1789211;80;20166;-62
2021/05/24 00:51:13;;;;;;;;;;;;;;;11.88;80.10;96072.42;1789556;80;20184;-62
2021/05/24 00:53:40;;;;;;;;;;;;;;;11.89;80.26;96078.12;1789516;80;20142;-61
2021/05/24 00:56:06;;;;;;;;;;;;;;;11.91;80.45;96094.38;1789222;80;20215;-62
2021/05/24 00:58:33;;;;;;;;;;;;;;;11.93;80.48;96094.38;1789317;80;20151;-61
2021/05/24 01:00:59;;;;;;;;;;;;;;;11.86;80.19;96093.58;1789277;80;20148;-62
2021/05/24 01:03:25;;;;;;;;;;;;;;;11.87;79.98;96094.03;1789456;80;20139;-61
2021/05/24 01:05:51;;;;;;;;;;;;;;;11.84;79.34;96096.70;1789465;80;20545;-62
2021/05/24 01:08:18;;;;;;;;;;;;;;;11.83;79.43;96094.06;1789130;80;20143;-62
2021/05/24 01:10:45;;;;;;;;;;;;;;;11.83;79.88;96099.34;1789328;80;20215;-62
2021/05/24 01:13:13;;;;;;;;;;;;;;;11.86;79.45;96104.16;1789207;80;20151;-62
2021/05/24 01:15:41;;;;;;;;;;;;;;;11.86;79.14;96107.23;1789167;80;20167;-62
2021/05/24 01:18:08;;;;;;;;;;;;;;;11.86;78.51;96106.80;1758663;80;20495;-61
2021/05/24 01:20:34;;;;;;;;;;;;;;;11.83;79.16;96123.14;1758647;80;20135;-62
2021/05/24 01:25:45;;;;;;;;;;;;;;;11.82;80.27;96131.53;1789341;80;20175;-62
2021/05/24 01:28:13;;;;;;;;;;;;;;;11.81;78.87;96131.09;1789294;80;20155;-62
2021/05/24 01:30:41;;;;;;;;;;;;;;;11.81;78.70;96136.83;1789201;80;20155;-62
2021/05/24 01:33:08;;;;;;;;;;;;;;;11.81;79.38;96148.27;1758668;80;20195;-62
2021/05/24 01:35:37;;;;;;;;;;;;;;;11.89;79.42;96144.22;1758930;80;20448;-62
2021/05/24 01:38:04;;;;;;;;;;;;;;;11.95;79.78;96152.09;1789115;80;20170;-62
2021/05/24 01:40:30;;;;;;;;;;;;;;;11.98;79.07;96149.84;1789189;80;20143;-62
2021/05/24 01:42:58;;;;;;;;;;;;;;;11.98;78.89;96153.81;1788795;80;20127;-63
2021/05/24 01:45:25;;;;;;;;;;;;;;;12.00;79.14;96159.95;1789068;80;20152;-62
2021/05/24 01:47:53;;;;;;;;;;;;;;;12.01;79.47;96170.48;1758726;80;20159;-62
2021/05/24 01:50:21;;;;;;;;;;;;;;;12.00;80.26;96171.86;1789108;80;20211;-62
2021/05/24 01:52:47;;;;;;;;;;;;;;;11.88;78.23;96176.41;1789319;80;20167;-62
2021/05/24 01:55:14;;;;;;;;;;;;;;;11.78;78.20;96179.19;1789224;80;20155;-62
2021/05/24 01:57:41;;;;;;;;;;;;;;;11.73;79.16;96188.49;1788651;80;20503;-62
2021/05/24 02:00:13;;;;;;;;;;;;;;;11.75;79.12;96185.39;1789217;80;20151;-62
2021/05/24 02:02:47;;;;;;;;;;;;;;;11.77;79.04;96191.53;1789202;80;20148;-62
2021/05/24 02:05:14;;;;;;;;;;;;;;;11.77;78.93;96193.28;1789179;80;20163;-62
2021/05/24 02:07:43;;;;;;;;;;;;;;;11.70;77.81;96192.05;1789264;80;20155;-62
2021/05/24 02:10:13;;;;;;;;;;;;;;;11.60;77.87;96200.13;1789309;80;20504;-62
2021/05/24 02:12:40;;;;;;;;;;;;;;;11.51;78.36;96200.23;1788938;80;20203;-62
2021/05/24 02:15:09;;;;;;;;;;;;;;;11.47;79.82;96200.28;1789247;80;20143;-62
2021/05/24 02:17:35;;;;;;;;;;;;;;;11.41;78.78;96199.47;1789166;80;20167;-62
2021/05/24 02:20:03;;;;;;;;;;;;;;;11.32;79.17;96202.24;1789000;80;20148;-62
2021/05/24 02:22:30;;;;;;;;;;;;;;;11.24;80.85;96210.26;1789369;80;20179;-62
2021/05/24 02:24:56;;;;;;;;;;;;;;;11.13;80.87;96216.09;1789148;80;20164;-62
2021/05/24 02:27:23;;;;;;;;;;;;;;;11.10;80.68;96213.48;1789006;80;20178;-62
2021/05/24 02:29:49;;;;;;;;;;;;;;;11.00;81.37;96223.27;1789242;80;20151;-62
2021/05/24 02:32:15;;;;;;;;;;;;;;;10.91;81.29;96229.95;1789258;80;20456;-62
2021/05/24 02:34:42;;;;;;;;;;;;;;;10.83;81.30;96230.02;1789255;80;20234;-62
2021/05/24 02:37:08;;;;;;;;;;;;;;;10.73;81.51;96234.95;1789252;80;20159;-62
2021/05/24 02:39:34;;;;;;;;;;;;;;;10.65;81.43;96241.63;1788938;80;20238;-62
2021/05/24 02:42:01;;;;;;;;;;;;;;;10.54;82.02;96240.41;1789127;80;20151;-62
2021/05/24 02:44:27;;;;;;;;;;;;;;;10.51;81.95;96244.39;1789343;80;20159;-62
2021/05/24 02:46:53;;;;;;;;;;;;;;;10.54;82.02;96247.45;1792158;80;20147;-62
2021/05/24 02:49:19;;;;;;;;;;;;;;;10.61;82.18;96262.35;1792398;80;20175;-62
2021/05/24 02:51:46;;;;;;;;;;;;;;;10.63;82.09;96264.50;1792256;80;20483;-62
2021/05/24 02:54:13;;;;;;;;;;;;;;;10.71;81.61;96262.70;1792200;80;20571;-62
2021/05/24 02:56:39;;;;;;;;;;;;;;;10.82;81.21;96266.11;1792161;80;20139;-62
2021/05/24 02:59:05;;;;;;;;;;;;;;;10.87;81.05;96267.84;1792305;80;20215;-62
2021/05/24 03:01:33;;;;;;;;;;;;;;;10.92;80.83;96275.28;1792015;80;20480;-62
2021/05/24 03:04:02;;;;;;;;;;;;;;;10.94;80.22;96273.05;1792259;80;20191;-62
2021/05/24 03:06:28;;;;;;;;;;;;;;;10.97;80.08;96282.72;1792287;80;20241;-62
2021/05/24 03:08:55;;;;;;;;;;;;;;;10.97;80.13;96286.22;1792175;80;20139;-62
2021/05/24 03:11:24;;;;;;;;;;;;;;;10.88;80.04;96283.66;1792582;80;20147;-62
2021/05/24 03:13:51;;;;;;;;;;;;;;;10.82;79.85;96281.08;1791921;80;20143;-62
2021/05/24 03:16:18;;;;;;;;;;;;;;;10.88;79.73;96276.19;1792253;80;20226;-62
2021/05/24 03:18:44;;;;;;;;;;;;;;;10.94;79.58;96281.43;1792607;80;20143;-62
2021/05/24 03:21:11;;;;;;;;;;;;;;;10.97;79.50;96284.03;1792032;80;20179;-63
2021/05/24 03:23:37;;;;;;;;;;;;;;;10.95;79.45;96287.13;1792389;80;20160;-62
2021/05/24 03:26:04;;;;;;;;;;;;;;;10.90;79.37;96288.94;1792239;80;20231;-62
2021/05/24 03:28:30;;;;;;;;;;;;;;;10.88;79.36;96290.25;1792060;80;20596;-62
2021/05/24 03:30:56;;;;;;;;;;;;;;;10.82;79.39;96295.60;1792244;80;20167;-62
2021/05/24 03:33:23;;;;;;;;;;;;;;;10.76;79.40;96295.22;1792293;80;20226;-62
2021/05/24 03:35:49;;;;;;;;;;;;;;;10.73;79.38;96300.94;1792238;80;20147;-63
2021/05/24 03:38:16;;;;;;;;;;;;;;;10.73;79.67;96301.81;1792233;80;20471;-65
2021/05/24 03:40:42;;;;;;;;;;;;;;;10.70;79.94;96304.48;1792249;80;20139;-64
2021/05/24 03:43:09;;;;;;;;;;;;;;;10.68;80.21;96306.25;1791760;80;20174;-63
2021/05/24 03:45:37;;;;;;;;;;;;;;;10.64;80.34;96299.27;1790966;80;20147;-63
2021/05/24 03:48:04;;;;;;;;;;;;;;;10.67;80.24;96301.00;1789225;80;20167;-63
2021/05/24 03:50:31;;;;;;;;;;;;;;;10.72;80.37;96305.80;1789145;80;20543;-63
2021/05/24 03:52:58;;;;;;;;;;;;;;;10.77;80.01;96304.87;1789319;80;20159;-64
2021/05/24 03:55:24;;;;;;;;;;;;;;;10.82;81.13;96311.44;1789058;80;20471;-64
2021/05/24 03:57:53;;;;;;;;;;;;;;;10.83;80.25;96311.86;1788923;80;20147;-64
2021/05/24 04:00:19;;;;;;;;;;;;;;;10.86;80.17;96325.48;1789204;80;20163;-63
2021/05/24 04:02:45;;;;;;;;;;;;;;;10.85;80.00;96326.38;1789194;80;20224;-64
2021/05/24 04:05:22;;;;;;;;;;;;;;;10.84;80.04;96325.51;1788720;80;20155;-64
2021/05/24 04:07:53;;;;;;;;;;;;;;;10.82;80.28;96328.15;1789220;80;20215;-63
2021/05/24 04:10:22;;;;;;;;;;;;;;;10.83;80.83;96332.98;1789406;80;20234;-64
2021/05/24 04:12:49;;;;;;;;;;;;;;;10.80;80.74;96339.16;1789104;80;20138;-64
2021/05/24 04:15:17;;;;;;;;;;;;;;;10.81;81.26;96346.21;1789199;80;20162;-63
2021/05/24 04:17:46;;;;;;;;;;;;;;;10.85;81.15;96346.18;1788983;80;20480;-65
2021/05/24 04:20:14;;;;;;;;;;;;;;;10.94;80.56;96356.23;1789010;80;20178;-65
2021/05/24 04:22:41;;;;;;;;;;;;;;;11.00;80.12;96364.54;1789239;80;20524;-65
2021/05/24 04:25:09;;;;;;;;;;;;;;;11.08;79.86;96364.03;1788982;80;20152;-64
2021/05/24 04:27:36;;;;;;;;;;;;;;;11.15;79.76;96382.90;1788996;80;20123;-64
2021/05/24 04:30:05;;;;;;;;;;;;;;;11.24;79.15;96379.33;1789210;80;20242;-65
2021/05/24 04:32:31;;;;;;;;;;;;;;;11.29;78.85;96388.50;1788465;80;20139;-64
2021/05/24 04:34:58;;;;;;;;;;;;;;;11.35;78.45;96393.30;1789294;80;20250;-64
2021/05/24 04:37:24;;;;;;;;;;;;;;;11.38;78.19;96394.59;1789075;80;20524;-64
2021/05/24 04:39:50;;;;;;;;;;;;;;;11.46;78.09;96401.13;1789189;80;20148;-65
2021/05/24 04:42:19;;;;;;;;;;;;;;;11.55;77.68;96405.02;1789085;80;20171;-64
2021/05/24 04:44:45;;;;;;;;;;;;;;;11.62;77.23;96405.39;1789167;80;20178;-62
2021/05/24 04:47:11;;;;;;;;;;;;;;;11.66;76.75;96415.02;1793869;80;20479;-61
2021/05/24 04:49:38;;;;;;;;;;;;;;;11.73;76.62;96414.98;1745023;81;20174;-62
2021/05/24 04:52:04;;;;;;;;;;;;;;;11.70;75.88;96414.11;1763569;81;20139;-63
2021/05/24 04:54:31;;;;;;;;;;;;;;;11.77;75.91;96420.65;1763214;81;20507;-62
2021/05/24 04:56:58;;;;;;;;;;;;;;;11.81;74.84;96419.73;1763400;81;20139;-63
2021/05/24 04:59:24;;;;;;;;;;;;;;;11.85;74.87;96426.76;1763315;81;20487;-62
2021/05/24 05:01:50;;;;;;;;;;;;;;;11.94;75.39;96433.28;1763346;80;20181;-61
2021/05/24 05:04:17;;;;;;;;;;;;;;;11.88;74.24;96437.33;1761949;81;20149;-61
2021/05/24 05:06:43;;;;;;;;;;;;;;;11.78;73.87;96435.64;1761729;81;20241;-64
2021/05/24 05:09:10;;;;;;;;;;;;;;;11.68;74.48;96438.36;1761937;81;20153;-60
2021/05/24 05:11:36;;;;;;;;;;;;;;;11.56;74.47;96447.72;1762077;81;20180;-65
2021/05/24 05:14:06;;;;;;;;;;;;;;;11.56;75.31;96454.78;1761776;81;20473;-62
2021/05/24 05:16:32;;;;;;;;;;;;;;;11.58;74.87;96456.97;1762179;81;20185;-62
2021/05/24 05:18:58;;;;;;;;;;;;;;;11.59;74.69;96453.42;1761930;81;20153;-64
2021/05/24 05:21:25;;;;;;;;;;;;;;;11.66;74.63;96456.00;1762006;81;20157;-62
2021/05/24 05:23:51;;;;;;;;;;;;;;;11.82;74.82;96457.20;1764444;80;20145;-64
2021/05/24 05:26:17;;;;;;;;;;;;;;;11.94;74.17;96467.67;1794480;80;20155;-62
2021/05/24 05:28:44;;;;;;;;;;;;;;;12.03;73.67;96459.65;1794580;80;20131;-63
2021/05/24 05:31:11;;;;;;;;;;;;;;;12.10;73.12;96463.98;1794992;80;20147;-62
2021/05/24 05:33:37;;;;;;;;;;;;;;;12.14;72.56;96452.91;1794856;80;20139;-63
2021/05/24 05:36:04;;;;;;;;;;;;;;;12.20;73.08;96447.58;1794453;80;20170;-65
2021/05/24 05:38:32;;;;;;;;;;;;;;;12.27;72.29;96451.00;1766128;80;20487;-63
2021/05/24 05:40:59;;;;;;;;;;;;;;;12.22;71.65;96447.53;1794995;79;20219;-62
2021/05/24 05:43:26;;;;;;;;;;;;;;;12.20;71.96;96446.70;1765829;80;20472;-63
2021/05/24 05:45:52;;;;;;;;;;;;;;;12.21;71.96;96447.12;1793368;80;20155;-64
2021/05/24 05:48:19;;;;;;;;;;;;;;;12.20;71.89;96440.95;1789383;80;20147;-64
2021/05/24 05:50:46;;;;;;;;;;;;;;;12.21;73.18;96437.86;1789409;80;20139;-62
2021/05/24 05:53:12;;;;;;;;;;;;;;;12.28;72.42;96441.73;1789191;80;20155;-62
2021/05/24 05:55:40;;;;;;;;;;;;;;;12.42;73.14;96449.95;1789045;80;20223;-62
2021/05/24 05:58:06;;;;;;;;;;;;;;;12.51;72.48;96448.53;1789224;80;20123;-63
2021/05/24 06:00:33;;;;;;;;;;;;;;;12.57;72.15;96457.70;1789205;80;20171;-64
2021/05/24 06:02:59;;;;;;;;;;;;;;;12.66;71.61;96452.75;1789068;80;20158;-63
2021/05/24 06:05:26;;;;;;;;;;;;;;;12.75;72.25;96451.28;1778950;80;20444;-64
2021/05/24 06:07:52;;;;;;;;;;;;;;;12.87;71.05;96458.20;1770702;79;20772;-65
2021/05/24 06:10:18;;;;;;;;;;;;;;;13.02;71.58;96455.78;1773448;79;20537;-64
2021/05/24 06:12:47;;;;;;;;;;;;;;;13.16;71.48;96452.05;1777710;80;20151;-65
2021/05/24 06:15:17;;;;;;;;;;;;;;;13.29;70.73;96446.59;1784217;79;20182;-66
2021/05/24 06:17:43;;;;;;;;;;;;;;;13.43;71.04;96444.61;1779002;79;20598;-63
2021/05/24 06:20:11;;;;;;;;;;;;;;;13.60;70.75;96441.20;1748714;81;20180;-65
2021/05/24 06:22:38;;;;;;;;;;;;;;;13.76;68.36;96448.92;1756009;81;20216;-64
2021/05/24 06:25:07;;;;;;;;;;;;;;;13.83;69.24;96447.45;1752228;81;20539;-65
2021/05/24 06:27:34;;;;;;;;;;;;;;;13.90;68.87;96448.66;1747301;80;20168;-65
2021/05/24 06:30:00;;;;;;;;;;;;;;;13.97;67.67;96449.84;1736137;83;20159;-63
2021/05/24 06:32:26;;;;;;;;;;;;;;;14.02;66.30;96452.42;1736228;83;20151;-64
2021/05/24 06:34:53;;;;;;;;;;;;;;;14.10;66.65;96448.30;1736271;83;20174;-63
2021/05/24 06:37:19;;;;;;;;;;;;;;;14.10;65.19;96447.84;1736245;83;20189;-64
2021/05/24 06:39:45;;;;;;;;;;;;;;;14.16;67.25;96446.42;1736085;83;20144;-63
2021/05/24 06:42:12;;;;;;;;;;;;;;;14.35;66.67;96448.70;1736046;83;20152;-65
2021/05/24 06:44:38;;;;;;;;;;;;;;;14.36;65.21;96446.45;1735952;83;20143;-64
2021/05/24 06:47:05;;;;;;;;;;;;;;;14.42;66.39;96456.98;1736102;83;20163;-63
2021/05/24 06:49:34;;;;;;;;;;;;;;;14.54;65.10;96459.84;1736051;83;20164;-63
2021/05/24 06:52:00;;;;;;;;;;;;;;;14.60;65.76;96457.95;1736337;83;20140;-63
2021/05/24 06:54:27;;;;;;;;;;;;;;;14.77;65.33;96459.40;1736297;83;20151;-63
2021/05/24 06:56:53;;;;;;;;;;;;;;;14.88;64.71;96452.92;1736204;83;20519;-62
2021/05/24 06:59:20;;;;;;;;;;;;;;;14.99;61.75;96451.35;1737268;81;20147;-64
2021/05/24 07:01:47;;;;;;;;;;;;;;;15.12;63.01;96466.14;1757612;81;20506;-64
2021/05/24 07:04:13;;;;;;;;;;;;;;;15.30;62.03;96457.33;1748850;81;20531;-64
2021/05/24 07:06:39;;;;;;;;;;;;;;;15.33;57.54;96458.58;1745868;81;20233;-63
2021/05/24 07:09:06;;;;;;;;;;;;;;;15.42;59.88;96459.70;1746621;81;20165;-64
2021/05/24 07:11:32;;;;;;;;;;;;;;;15.46;59.78;96457.37;1744075;81;20155;-64
2021/05/24 07:13:58;;;;;;;;;;;;;;;15.54;59.90;96453.19;1745764;81;20235;-63
2021/05/24 07:16:25;;;;;;;;;;;;;;;15.56;56.00;96448.25;1751021;81;20226;-64
2021/05/24 07:18:51;;;;;;;;;;;;;;;15.56;56.66;96446.05;1749215;81;20180;-63
2021/05/24 07:21:17;;;;;;;;;;;;;;;15.67;57.56;96442.66;1772414;81;20141;-65
2021/05/24 07:23:43;;;;;;;;;;;;;;;15.71;55.86;96435.06;1772308;81;20151;-64
2021/05/24 07:26:10;;;;;;;;;;;;;;;15.81;55.56;96438.83;1772406;81;20160;-65
2021/05/24 07:28:36;;;;;;;;;;;;;;;15.86;55.68;96435.59;1772177;81;20211;-63
2021/05/24 07:31:02;;;;;;;;;;;;;;;15.90;56.39;96432.81;1772394;81;20137;-64
2021/05/24 07:33:29;;;;;;;;;;;;;;;16.04;55.18;96432.44;1772390;81;20158;-64
2021/05/24 07:35:55;;;;;;;;;;;;;;;16.14;51.48;96432.60;1772320;81;20137;-64
2021/05/24 07:38:22;;;;;;;;;;;;;;;16.17;55.53;96435.64;1772262;81;20141;-63
2021/05/24 07:40:48;;;;;;;;;;;;;;;16.01;50.42;96435.19;1772332;81;20157;-63
2021/05/24 07:43:15;;;;;;;;;;;;;;;15.92;53.16;96433.63;1772106;81;20133;-63
2021/05/24 07:45:41;;;;;;;;;;;;;;;16.07;53.41;96427.48;1772383;81;20141;-64
2021/05/24 07:48:08;;;;;;;;;;;;;;;16.25;54.81;96427.44;1758376;81;20150;-63
2021/05/24 07:50:34;;;;;;;;;;;;;;;16.39;53.40;96434.59;1757700;82;20165;-62
2021/05/24 07:53:01;;;;;;;;;;;;;;;16.49;52.01;96431.22;1757874;82;20129;-62
2021/05/24 07:55:28;;;;;;;;;;;;;;;16.60;51.00;96431.77;1757696;82;20459;-64
2021/05/24 07:57:54;;;;;;;;;;;;;;;16.47;49.04;96424.59;1757957;82;20169;-63
2021/05/24 08:00:25;;;;;;;;;;;;;;;16.58;50.41;96426.94;1757557;82;20170;-63
2021/05/24 08:02:49;;;;;;;;;;;;;;;16.71;49.58;96432.34;1757468;82;20150;-62
2021/05/24 08:05:15;;;;;;;;;;;;;;;16.93;50.34;96439.26;1757536;82;20153;-63
2021/05/24 08:07:42;;;;;;;;;;;;;;;17.20;51.38;96439.34;1757922;82;20185;-63
2021/05/24 08:10:10;;;;;;;;;;;;;;;17.14;48.34;96423.08;1757603;82;20130;-63
2021/05/24 08:12:41;;;;;;;;;;;;;;;17.32;47.53;96423.43;1758017;82;20477;-62
2021/05/24 08:15:07;;;;;;;;;;;;;;;17.26;49.13;96420.47;1756183;82;20494;-64
2021/05/24 08:17:33;;;;;;;;;;;;;;;17.17;47.35;96413.65;1757658;82;20553;-62
2021/05/24 08:19:59;;;;;;;;;;;;;;;17.22;47.80;96413.51;1757656;82;20141;-62
2021/05/24 08:22:26;;;;;;;;;;;;;;;17.36;47.44;96424.63;1757953;82;20505;-62
2021/05/24 08:24:52;;;;;;;;;;;;;;;17.40;50.65;96418.71;1757882;82;20177;-62
2021/05/24 08:27:20;;;;;;;;;;;;;;;17.59;50.63;96420.30;1758094;82;20164;-63
2021/05/24 08:29:46;;;;;;;;;;;;;;;17.69;46.57;96405.29;1757610;82;20150;-62
2021/05/24 08:32:12;;;;;;;;;;;;;;;17.71;45.94;96395.87;1757915;82;20470;-62
2021/05/24 08:34:38;;;;;;;;;;;;;;;17.58;49.05;96391.89;1757834;81;20141;-62
2021/05/24 08:37:05;;;;;;;;;;;;;;;17.82;50.99;96388.89;1757894;82;20161;-62
2021/05/24 08:39:31;;;;;;;;;;;;;;;17.85;49.82;96393.66;1758078;82;20143;-64
2021/05/24 08:41:59;;;;;;;;;;;;;;;17.89;50.31;96391.73;1758070;82;20145;-65
2021/05/24 08:44:26;;;;;;;;;;;;;;;18.07;50.51;96396.45;1757644;82;20149;-63
2021/05/24 08:46:52;;;;;;;;;;;;;;;18.10;48.47;96410.16;1762346;81;20176;-64
2021/05/24 08:49:19;;;;;;;;;;;;;;;18.12;45.19;96415.85;1772468;81;20165;-63
2021/05/24 08:51:45;;;;;;;;;;;;;;;18.21;49.11;96423.98;1772504;81;20188;-62
2021/05/24 08:54:11;;;;;;;;;;;;;;;18.27;50.66;96409.09;1772617;81;20145;-62
2021/05/24 08:56:38;;;;;;;;;;;;;;;18.33;49.79;96396.84;1772639;81;20164;-61
2021/05/24 08:59:04;;;;;;;;;;;;;;;18.41;50.17;96402.38;1772285;81;20482;-62
2021/05/24 09:01:31;;;;;;;;;;;;;;;18.50;52.50;96395.36;1772493;81;20145;-61
2021/05/24 09:04:01;;;;;;;;;;;;;;;18.66;50.44;96395.66;1772214;81;20489;-61
2021/05/24 09:06:42;;;;;;;;;;;;;;;18.94;54.34;96393.69;1770856;81;20157;-61
2021/05/24 09:09:14;;;;;;;;;;;;;;;19.19;49.53;96378.02;1772574;81;20459;-61
2021/05/24 09:11:41;;;;;;;;;;;;;;;19.26;48.15;96374.16;1772333;81;20478;-61
2021/05/24 09:14:16;;;;;;;;;;;;;;;19.27;50.37;96384.40;1772086;81;20221;-62
2021/05/24 09:16:43;;;;;;;;;;;;;;;19.29;47.36;96390.09;1772158;81;20138;-60
2021/05/24 09:19:12;;;;;;;;;;;;;;;18.99;43.46;96396.19;1772292;81;20478;-61
2021/05/24 09:21:39;;;;;;;;;;;;;;;18.98;50.70;96398.00;1772673;81;20138;-61
2021/05/24 09:24:22;;;;;;;;;;;;;;;19.16;52.42;96391.05;1742437;81;20173;-61
2021/05/24 09:26:48;;;;;;;;;;;;;;;19.36;50.44;96388.05;1770791;81;20149;-61
2021/05/24 09:29:23;;;;;;;;;;;;;;;19.39;48.45;96382.09;1772385;81;20161;-61
2021/05/24 09:31:47;;;;;;;;;;;;;;;19.58;51.33;96371.95;1772231;81;20171;-61
2021/05/24 09:34:17;;;;;;;;;;;;;;;19.66;47.82;96364.02;1772552;81;20173;-61
2021/05/24 09:36:43;;;;;;;;;;;;;;;19.69;48.62;96360.85;1772180;81;20141;-61
2021/05/24 09:39:11;;;;;;;;;;;;;;;19.88;49.82;96367.14;1772538;81;20149;-61
2021/05/24 09:41:43;;;;;;;;;;;;;;;19.87;48.00;96366.28;1772018;81;20176;-60
2021/05/24 09:44:21;;;;;;;;;;;;;;;19.85;50.29;96373.50;1772633;81;20141;-61
2021/05/24 09:46:48;;;;;;;;;;;;;;;19.95;45.45;96376.66;1772383;81;20569;-60
2021/05/24 09:49:14;;;;;;;;;;;;;;;20.10;41.54;96369.29;1772395;81;20153;-61
2021/05/24 09:51:44;;;;;;;;;;;;;;;20.17;46.76;96377.94;1742609;81;20482;-61
2021/05/24 09:54:12;;;;;;;;;;;;;;;20.05;45.95;96382.49;1742758;81;20153;-61
2021/05/24 09:56:41;;;;;;;;;;;;;;;20.09;44.97;96374.73;1772421;81;20176;-60
2021/05/24 09:59:10;;;;;;;;;;;;;;;19.96;44.92;96378.86;1772439;81;20458;-60
2021/05/24 10:01:40;;;;;;;;;;;;;;;19.96;46.16;96374.84;1771910;81;20497;-61
2021/05/24 10:04:08;;;;;;;;;;;;;;;20.19;46.46;96377.41;1772512;81;20152;-60
2021/05/24 10:06:35;;;;;;;;;;;;;;;20.19;45.98;96349.27;1772441;81;20168;-61
2021/05/24 10:09:03;;;;;;;;;;;;;;;20.05;43.83;96351.68;1772297;81;20157;-61
2021/05/24 10:11:29;;;;;;;;;;;;;;;19.96;44.28;96358.33;1772381;81;20146;-61
2021/05/24 10:13:57;;;;;;;;;;;;;;;19.87;44.47;96356.03;1772610;81;20181;-60
2021/05/24 10:16:30;;;;;;;;;;;;;;;20.04;45.95;96351.30;1772127;81;20180;-61
2021/05/24 10:18:54;;;;;;;;;;;;;;;20.07;42.65;96352.49;1772021;81;20188;-60
2021/05/24 10:21:20;;;;;;;;;;;;;;;20.40;41.57;96346.56;1772516;81;20145;-61
2021/05/24 10:23:46;;;;;;;;;;;;;;;20.63;42.20;96333.47;1772301;81;20157;-61
2021/05/24 10:26:15;;;;;;;;;;;;;;;20.38;40.62;96331.88;1772348;81;20165;-61
2021/05/24 10:28:44;;;;;;;;;;;;;;;20.17;42.59;96339.56;1743013;81;20514;-61
2021/05/24 10:31:22;;;;;;;;;;;;;;;20.55;43.42;96333.83;1772259;81;20161;-61
2021/05/24 10:33:49;;;;;;;;;;;;;;;20.81;43.91;96325.89;1772492;81;20461;-61
2021/05/24 10:36:22;;;;;;;;;;;;;;;20.95;42.36;96318.06;1772244;81;20138;-61
2021/05/24 10:39:16;;;;;;;;;;;;;;;21.01;42.66;96326.76;1772401;81;20165;-60
2021/05/24 10:41:44;;;;;;;;;;;;;;;21.23;43.10;96321.23;1771731;81;20156;-61
2021/05/24 10:44:37;;;;;;;;;;;;;;;21.23;40.02;96319.41;1771370;81;20149;-61
2021/05/24 10:47:22;;;;;;;;;;;;;;;21.04;41.29;96318.11;1769140;81;20181;-61
2021/05/24 10:50:05;;;;;;;;;;;;;;;20.78;44.62;96323.36;1760578;82;20145;-61
2021/05/24 10:52:30;;;;;;;;;;;;;;;20.88;40.91;96334.53;1759095;82;20482;-61
2021/05/24 10:54:57;;;;;;;;;;;;;;;21.13;43.09;96336.42;1760657;82;20150;-61
2021/05/24 10:57:23;;;;;;;;;;;;;;;21.36;42.61;96325.89;1760498;82;20648;-61
2021/05/24 10:59:54;;;;;;;;;;;;;;;21.57;39.70;96315.05;1760313;81;20182;-61
2021/05/24 11:02:33;;;;;;;;;;;;;;;21.92;43.88;96319.09;1760732;82;20141;-60
2021/05/24 11:05:25;;;;;;;;;;;;;;;22.07;41.64;96313.39;1760534;82;20150;-61
2021/05/24 11:08:01;;;;;;;;;;;;;;;22.02;41.95;96319.91;1759717;82;20165;-61
2021/05/24 11:10:32;;;;;;;;;;;;;;;21.92;40.51;96317.27;1760035;82;20166;-61
2021/05/24 11:13:14;;;;;;;;;;;;;;;22.08;41.65;96314.67;1760603;82;20494;-61
2021/05/24 11:15:43;;;;;;;;;;;;;;;22.03;39.22;96314.91;1760361;82;20173;-61
2021/05/24 11:18:12;;;;;;;;;;;;;;;22.17;36.53;96311.48;1760565;82;20221;-61
2021/05/24 11:21:02;;;;;;;;;;;;;;;22.15;37.92;96309.82;1760487;82;20154;-61
2021/05/24 11:23:42;;;;;;;;;;;;;;;22.14;37.73;96305.41;1757960;82;20450;-61
2021/05/24 11:26:35;;;;;;;;;;;;;;;22.30;40.64;96305.48;1759683;82;20474;-61
2021/05/24 11:29:16;;;;;;;;;;;;;;;22.18;40.27;96309.69;1760579;82;20241;-61
2021/05/24 11:31:46;;;;;;;;;;;;;;;21.93;40.36;96296.67;1760439;82;20129;-61
2021/05/24 11:34:31;;;;;;;;;;;;;;;21.96;38.75;96307.25;1760569;82;20153;-61
2021/05/24 11:37:00;;;;;;;;;;;;;;;22.00;39.33;96304.33;1760571;82;20209;-61
2021/05/24 11:39:32;;;;;;;;;;;;;;;22.22;38.90;96303.20;1760572;82;20158;-61
2021/05/24 11:42:05;;;;;;;;;;;;;;;22.63;41.71;96298.77;1759642;82;20149;-61
2021/05/24 11:44:40;;;;;;;;;;;;;;;22.66;41.01;96303.97;1759458;82;20165;-61
2021/05/24 11:47:09;;;;;;;;;;;;;;;22.94;37.64;96306.47;1760151;81;20149;-61
2021/05/24 11:49:44;;;;;;;;;;;;;;;23.01;35.40;96297.99;1760128;82;20193;-61
2021/05/24 11:52:19;;;;;;;;;;;;;;;22.73;32.48;96291.92;1760701;82;20253;-61
2021/05/24 11:54:50;;;;;;;;;;;;;;;22.78;33.63;96294.33;1760434;82;20189;-61
2021/05/24 11:57:18;;;;;;;;;;;;;;;22.78;35.41;96287.15;1760605;81;20185;-61
2021/05/24 11:59:45;;;;;;;;;;;;;;;22.44;36.79;96282.28;1760652;82;20161;-61
2021/05/24 12:02:12;;;;;;;;;;;;;;;22.31;34.87;96286.59;1760550;82;20142;-61
2021/05/24 12:04:42;;;;;;;;;;;;;;;22.18;36.83;96290.39;1760713;81;20145;-61
2021/05/24 12:07:15;;;;;;;;;;;;;;;22.21;38.72;96294.77;1759720;82;20165;-61
2021/05/24 12:09:42;;;;;;;;;;;;;;;22.23;37.69;96288.84;1759646;82;20228;-61
2021/05/24 12:12:14;;;;;;;;;;;;;;;22.13;37.26;96286.22;1760757;81;20145;-61
2021/05/24 12:14:46;;;;;;;;;;;;;;;22.06;38.03;96281.63;1760631;82;20176;-61
2021/05/24 12:17:21;;;;;;;;;;;;;;;21.87;40.04;96283.55;1760750;82;20483;-61
2021/05/24 12:19:51;;;;;;;;;;;;;;;21.69;39.70;96284.03;1759545;82;20177;-61
2021/05/24 12:22:17;;;;;;;;;;;;;;;21.93;39.92;96278.73;1760636;82;20502;-61
2021/05/24 12:24:45;;;;;;;;;;;;;;;22.33;40.84;96286.52;1760805;82;20191;-61
2021/05/24 12:27:13;;;;;;;;;;;;;;;22.48;38.78;96276.27;1760587;82;20205;-61
2021/05/24 12:29:53;;;;;;;;;;;;;;;22.74;40.29;96276.16;1760604;82;20141;-61
2021/05/24 12:32:35;;;;;;;;;;;;;;;22.77;39.92;96280.50;1760579;82;20516;-61
2021/05/24 12:35:07;;;;;;;;;;;;;;;22.60;39.61;96280.08;1759203;82;20493;-61
2021/05/24 12:37:35;;;;;;;;;;;;;;;22.65;38.84;96280.70;1760626;82;20173;-61
2021/05/24 12:40:10;;;;;;;;;;;;;;;22.60;39.46;96282.77;1760590;82;20474;-61
2021/05/24 12:42:38;;;;;;;;;;;;;;;22.54;40.32;96280.44;1760655;82;20158;-61
2021/05/24 12:45:08;;;;;;;;;;;;;;;22.37;41.68;96262.05;1760596;82;20526;-61
2021/05/24 12:47:34;;;;;;;;;;;;;;;22.46;42.13;96267.41;1760202;81;20173;-61
2021/05/24 12:50:17;;;;;;;;;;;;;;;22.51;41.58;96263.99;1757924;82;20154;-61
2021/05/24 12:52:44;;;;;;;;;;;;;;;22.39;41.66;96264.66;1758253;82;20217;-61
2021/05/24 12:55:14;;;;;;;;;;;;;;;22.38;41.32;96263.80;1758093;82;20129;-61
2021/05/24 12:57:42;;;;;;;;;;;;;;;22.25;40.13;96270.78;1757938;82;20178;-61